Cathedral City, CA (92234)

3:20 AM PDT on August 29, 2016 (GMT -0700)
MesoWest | | Change Station

Elev 1549 ft 33.87 °N, 116.43 °W | Updated 1 hour ago

Clear
Clear
86 °F
Feels Like 83 °F
N
8
Wind Variable Wind from North
Gusts 9.0 mph

Today
High -- | Low -- °F
--% Chance of Precip.
Yesterday
High -- | Low -- °F
Precip. -- in
Pressure 29.87 in
Visibility 10.0 miles
Clouds Clear
Heat Index 83 °F
Dew Point 43 °F
Humidity 22%
Rainfall in
Snow Depth Not available.
6:17 AM 7:14 PM
Waning Crescent, 9% visible
METAR KPSP 290953Z 32007KT 10SM CLR 32/07 A2989 RMK AO2 SLP115 T03170072 $
Pressure 29.87 in
Visibility 10.0 miles
Clouds Clear
Heat Index 83 °F
Dew Point 43 °F
Humidity 22%
Rainfall in
Snow Depth Not available.
6:17 AM 7:14 PM
Waning Crescent, 9% visible
METAR KPSP 290953Z 32007KT 10SM CLR 32/07 A2989 RMK AO2 SLP115 T03170072 $

10-Day Weather Forecast

Almanac

Astronomy

Aug. 29, 2016 Rise Set
Actual Time
Civil Twilight
Nautical Twilight
Astronomical Twilight
Moon
Length of Visible Light
Length of Day
Tomorrow will be .
, % of the Moon is Illuminated

Today's Extremes

State Highs State Lows

Community

WunderPhotos

Upload Photos

1,935,798 photos uploaded!

WunderBlog® & News

Nearby

Air Quality

  Air Quality AQ Index Pollutant
Not available.

Snow Depth

Station Depth Elevation

Earthquake Activity

City Distance Mag. Time & Date
Minimum magnitude displayed is 2.5.

Coastal Water Temperatures

Place Temperature

Stations

Nearby Weather Stations

Station Location Temp. Windchill Dew Point Humidity Wind Precip. Elev Updated Type
                   

Watches & Warnings

There are currently no watches in effect.